createdAt,value
2018-04-25T00:00:57.667Z,1005.20
2018-04-25T00:01:57.696Z,1005.15
2018-04-25T00:02:57.713Z,1005.10
2018-04-25T00:03:57.731Z,1005.05
2018-04-25T00:04:57.746Z,1005.05
2018-04-25T00:05:57.763Z,1005.03
2018-04-25T00:06:57.784Z,1005.02
2018-04-25T00:07:57.806Z,1005.05
2018-04-25T00:08:57.830Z,1005.01
2018-04-25T00:09:57.848Z,1005.03
2018-04-25T00:10:57.857Z,1005.05
2018-04-25T00:11:57.877Z,1005.04
2018-04-25T00:12:57.900Z,1005.01
2018-04-25T00:13:57.921Z,1005.03
2018-04-25T00:14:57.942Z,1005.03
2018-04-25T00:15:57.978Z,1005.04
2018-04-25T00:16:57.973Z,1005.03
2018-04-25T00:17:57.994Z,1004.99
2018-04-25T00:18:58.017Z,1004.97
2018-04-25T00:19:58.040Z,1004.93
2018-04-25T00:20:58.059Z,1004.88
2018-04-25T00:21:58.068Z,1004.85
2018-04-25T00:22:58.101Z,1004.87
2018-04-25T00:23:58.110Z,1004.89
2018-04-25T00:24:58.134Z,1004.88
2018-04-25T00:25:58.153Z,1004.89
2018-04-25T00:26:58.173Z,1004.84
2018-04-25T00:27:58.195Z,1004.86
2018-04-25T00:28:58.205Z,1004.92
2018-04-25T00:29:58.227Z,1004.82
2018-04-25T00:30:58.247Z,1004.82
2018-04-25T00:31:58.270Z,1004.79
2018-04-25T00:32:58.292Z,1004.77
2018-04-25T00:33:58.298Z,1004.77
2018-04-25T00:34:58.321Z,1004.75
2018-04-25T00:35:58.341Z,1004.76
2018-04-25T00:36:58.364Z,1004.71
2018-04-25T00:37:58.384Z,1004.69
2018-04-25T00:38:58.394Z,1004.66
2018-04-25T00:39:58.421Z,1004.66
2018-04-25T00:40:58.437Z,1004.65
2018-04-25T00:41:58.458Z,1004.65
2018-04-25T00:42:58.480Z,1004.66
2018-04-25T00:43:58.500Z,1004.63
2018-04-25T00:44:58.529Z,1004.59
2018-04-25T00:45:58.531Z,1004.60
2018-04-25T00:46:58.552Z,1004.53
2018-04-25T00:47:58.574Z,1004.47
2018-04-25T00:48:58.594Z,1004.46
2018-04-25T00:49:58.610Z,1004.44
2018-04-25T00:50:58.626Z,1004.43
2018-04-25T00:51:58.647Z,1004.43
2018-04-25T00:52:58.668Z,1004.43
2018-04-25T00:53:58.701Z,1004.44
2018-04-25T00:54:58.712Z,1004.43
2018-04-25T00:55:58.721Z,1004.47
2018-04-25T00:56:58.742Z,1004.45
2018-04-25T00:57:58.763Z,1004.46
2018-04-25T00:58:58.784Z,1004.38
2018-04-25T00:59:58.804Z,1004.41
2018-04-25T01:00:58.826Z,1004.38
2018-04-25T01:01:58.836Z,1004.32
2018-04-25T01:02:58.857Z,1004.36
2018-04-25T01:03:58.879Z,1004.40
2018-04-25T01:04:58.901Z,1004.35
2018-04-25T01:05:58.921Z,1004.32
2018-04-25T01:06:58.929Z,1004.28
2018-04-25T01:07:58.964Z,1004.24
2018-04-25T01:08:58.972Z,1004.24
2018-04-25T01:09:58.994Z,1004.18
2018-04-25T01:10:59.015Z,1004.22
2018-04-25T01:11:59.105Z,1004.18
2018-04-25T01:12:59.047Z,1004.19
2018-04-25T01:13:59.068Z,1004.14
2018-04-25T01:14:59.090Z,1004.11
2018-04-25T01:15:59.112Z,1004.05
2018-04-25T01:16:59.132Z,1004.04
2018-04-25T01:17:59.141Z,1004.02
2018-04-25T01:18:59.166Z,1004.05
2018-04-25T01:19:59.183Z,1004.05
2018-04-25T01:20:59.204Z,1003.99
2018-04-25T01:21:59.230Z,1004.06
2018-04-25T01:22:59.247Z,1004.04
2018-04-25T01:23:59.256Z,1004.00
2018-04-25T01:24:59.282Z,1003.95
2018-04-25T01:25:59.300Z,1003.95
2018-04-25T01:26:59.321Z,1003.90
2018-04-25T01:27:59.342Z,1003.89
2018-04-25T01:28:59.351Z,1003.92
2018-04-25T01:29:59.385Z,1003.84
2018-04-25T01:30:59.393Z,1003.81
2018-04-25T01:31:59.414Z,1003.82
2018-04-25T01:32:59.437Z,1003.75
2018-04-25T01:33:59.448Z,1003.65
2018-04-25T01:34:59.471Z,1003.65
2018-04-25T01:35:59.489Z,1003.70
2018-04-25T01:36:59.509Z,1003.73
2018-04-25T01:37:59.532Z,1003.69
2018-04-25T01:38:59.552Z,1003.62
2018-04-25T01:39:59.563Z,1003.63
2018-04-25T01:40:59.582Z,1003.63
2018-04-25T01:41:59.603Z,1003.68
2018-04-25T01:42:59.638Z,1003.60
2018-04-25T01:43:59.648Z,1003.59
2018-04-25T01:44:59.656Z,1003.56
2018-04-25T01:45:59.676Z,1003.46
2018-04-25T01:46:59.700Z,1003.47
2018-04-25T01:47:59.719Z,1003.47
2018-04-25T01:48:59.742Z,1003.47
2018-04-25T01:49:59.763Z,1003.41
2018-04-25T01:50:59.771Z,1003.34
2018-04-25T01:51:59.793Z,1003.36
2018-04-25T01:52:59.828Z,1003.37
2018-04-25T01:53:59.835Z,1003.33
2018-04-25T01:54:59.857Z,1003.27
2018-04-25T01:55:59.867Z,1003.24
2018-04-25T01:56:59.887Z,1003.21
2018-04-25T01:57:59.910Z,1003.18
2018-04-25T01:58:59.930Z,1003.22
2018-04-25T01:59:59.953Z,1003.18
2018-04-25T02:00:59.961Z,1003.14
2018-04-25T02:01:59.981Z,1003.12
2018-04-25T02:03:00.004Z,1003.16
2018-04-25T02:04:00.027Z,1003.19
2018-04-25T02:05:00.046Z,1003.18
2018-04-25T02:06:00.056Z,1003.15
2018-04-25T02:07:00.077Z,1003.15
2018-04-25T02:08:00.103Z,1003.19
2018-04-25T02:09:00.120Z,1003.22
2018-04-25T02:10:00.142Z,1003.15
2018-04-25T02:11:00.162Z,1003.21
2018-04-25T02:12:00.171Z,1003.18
2018-04-25T02:13:00.192Z,1003.11
2018-04-25T02:14:00.214Z,1003.05
2018-04-25T02:15:00.240Z,1003.04
2018-04-25T02:16:00.257Z,1003.04
2018-04-25T02:17:00.282Z,1003.02
2018-04-25T02:18:00.288Z,1002.98
2018-04-25T02:19:00.308Z,1002.95
2018-04-25T02:20:00.333Z,1002.95
2018-04-25T02:21:00.352Z,1002.91
2018-04-25T02:22:00.366Z,1002.85
2018-04-25T02:23:00.380Z,1002.89
2018-04-25T02:24:00.402Z,1002.83
2018-04-25T02:25:00.439Z,1002.76
2018-04-25T02:26:00.446Z,1002.77
2018-04-25T02:27:00.466Z,1002.73
2018-04-25T02:28:00.476Z,1002.71
2018-04-25T02:29:00.500Z,1002.61
2018-04-25T02:30:00.676Z,1002.58
2018-04-25T02:31:00.542Z,1002.58
2018-04-25T02:32:00.564Z,1002.54
2018-04-25T02:33:00.583Z,1002.53
2018-04-25T02:34:00.593Z,1002.52
2018-04-25T02:35:00.612Z,1002.51
2018-04-25T02:36:00.634Z,1002.51
2018-04-25T02:37:00.655Z,1002.42
2018-04-25T02:38:00.689Z,1002.41
2018-04-25T02:39:00.686Z,1002.43
2018-04-25T02:40:00.707Z,1002.41
2018-04-25T02:41:00.741Z,1002.40
2018-04-25T02:42:00.751Z,1002.38
2018-04-25T02:43:00.772Z,1002.34
2018-04-25T02:44:00.794Z,1002.34
2018-04-25T02:45:00.802Z,1002.26
2018-04-25T02:46:00.823Z,1002.27
2018-04-25T02:47:00.845Z,1002.28
2018-04-25T02:48:00.881Z,1002.24
2018-04-25T02:49:00.890Z,1002.23
2018-04-25T02:50:00.901Z,1002.22
2018-04-25T02:51:00.921Z,1002.20
2018-04-25T02:52:00.941Z,1002.24
2018-04-25T02:53:00.962Z,1002.19
2018-04-25T02:54:00.983Z,1002.11
2018-04-25T02:55:01.006Z,1002.08
2018-04-25T02:56:01.014Z,1002.07
2018-04-25T02:57:01.034Z,1002.02
2018-04-25T02:58:01.056Z,1001.92
2018-04-25T02:59:01.122Z,1002.05
2018-04-25T03:00:01.099Z,1002.06
2018-04-25T03:01:01.120Z,1002.00
2018-04-25T03:02:01.130Z,1002.02
2018-04-25T03:03:01.151Z,1002.02
2018-04-25T03:04:01.176Z,1002.03
2018-04-25T03:05:01.195Z,1002.00
2018-04-25T03:06:01.216Z,1002.07
2018-04-25T03:07:01.236Z,1001.97
2018-04-25T03:08:01.245Z,1001.96
2018-04-25T03:09:01.267Z,1001.92
2018-04-25T03:10:01.302Z,1001.90
2018-04-25T03:11:01.310Z,1001.91
2018-04-25T03:12:01.335Z,1001.85
2018-04-25T03:13:01.353Z,1001.84
2018-04-25T03:14:01.363Z,1001.80
2018-04-25T03:15:01.389Z,1001.74
2018-04-25T03:16:01.404Z,1001.72
2018-04-25T03:17:01.426Z,1001.72
2018-04-25T03:18:01.447Z,1001.75
2018-04-25T03:19:01.457Z,1001.74
2018-04-25T03:20:01.477Z,1001.74
2018-04-25T03:21:01.498Z,1001.73
2018-04-25T03:22:01.520Z,1001.76
2018-04-25T03:23:01.554Z,1001.74
2018-04-25T03:24:01.563Z,1001.73
2018-04-25T03:25:01.583Z,1001.66
2018-04-25T03:26:01.596Z,1001.67
2018-04-25T03:27:01.615Z,1001.67
2018-04-25T03:28:01.640Z,1001.62
2018-04-25T03:29:01.658Z,1001.63
2018-04-25T03:30:01.679Z,1001.61
2018-04-25T03:31:01.689Z,1001.60
2018-04-25T03:32:01.708Z,1001.57
2018-04-25T03:33:01.747Z,1001.54
2018-04-25T03:34:01.751Z,1001.53
2018-04-25T03:35:01.774Z,1001.54
2018-04-25T03:36:01.794Z,1001.49
2018-04-25T03:37:01.815Z,1001.48
2018-04-25T03:38:01.825Z,1001.45
2018-04-25T03:39:01.852Z,1001.46
2018-04-25T03:40:01.870Z,1001.41
2018-04-25T03:41:01.956Z,1001.49
2018-04-25T03:42:01.911Z,1001.47
2018-04-25T03:43:01.932Z,1001.40
2018-04-25T03:44:01.940Z,1001.41
2018-04-25T03:45:01.964Z,1001.40
2018-04-25T03:46:01.983Z,1001.40
2018-04-25T03:47:02.005Z,1001.38
2018-04-25T03:48:02.026Z,1001.38
2018-04-25T03:49:02.038Z,1001.46
2018-04-25T03:50:02.058Z,1001.46
2018-04-25T03:51:02.079Z,1001.40
2018-04-25T03:52:02.100Z,1001.40
2018-04-25T03:53:02.134Z,1001.35
2018-04-25T03:54:02.142Z,1001.36
2018-04-25T03:55:02.163Z,1001.37
2018-04-25T03:56:02.172Z,1001.35
2018-04-25T03:57:02.193Z,1001.37
2018-04-25T03:58:02.215Z,1001.33
2018-04-25T03:59:02.244Z,1001.32
2018-04-25T04:00:02.258Z,1001.25
2018-04-25T04:01:02.268Z,1001.30
2018-04-25T04:02:02.289Z,1001.31
2018-04-25T04:03:02.310Z,1001.34
2018-04-25T04:04:02.330Z,1001.31
2018-04-25T04:05:02.353Z,1001.31
2018-04-25T04:06:02.372Z,1001.26
2018-04-25T04:07:02.383Z,1001.26
2018-04-25T04:08:02.416Z,1001.29
2018-04-25T04:09:02.427Z,1001.28
2018-04-25T04:10:02.446Z,1001.29
2018-04-25T04:11:02.467Z,1001.34
2018-04-25T04:12:02.488Z,1001.30
2018-04-25T04:13:02.575Z,1001.34
2018-04-25T04:14:02.520Z,1001.34
2018-04-25T04:15:02.544Z,1001.27
2018-04-25T04:16:02.563Z,1001.24
2018-04-25T04:17:02.585Z,1001.24
2018-04-25T04:18:02.608Z,1001.22
2018-04-25T04:19:02.615Z,1001.23
2018-04-25T04:20:02.635Z,1001.18
2018-04-25T04:21:02.657Z,1001.18
2018-04-25T04:22:02.677Z,1001.13
2018-04-25T04:23:02.699Z,1001.16
2018-04-25T04:24:02.722Z,1001.08
2018-04-25T04:25:02.730Z,1001.08
2018-04-25T04:26:02.751Z,1001.02
2018-04-25T04:27:02.773Z,1001.09
2018-04-25T04:28:02.795Z,1001.14
2018-04-25T04:29:02.816Z,1001.12
2018-04-25T04:30:02.825Z,1001.09
2018-04-25T04:31:02.846Z,1001.15
2018-04-25T04:32:02.867Z,1001.11
2018-04-25T04:33:02.891Z,1001.05
2018-04-25T04:34:02.913Z,1001.00
2018-04-25T04:35:02.931Z,1001.07
2018-04-25T04:36:02.953Z,1001.00
2018-04-25T04:37:02.962Z,1000.98
2018-04-25T04:38:02.984Z,1000.95
2018-04-25T04:39:03.005Z,1001.02
2018-04-25T04:40:03.027Z,1000.99
2018-04-25T04:41:03.051Z,1000.96
2018-04-25T04:42:03.058Z,1000.98
2018-04-25T04:43:03.078Z,1000.98
2018-04-25T04:44:03.099Z,1000.97
2018-04-25T04:45:03.121Z,1000.98
2018-04-25T04:46:03.142Z,1000.99
2018-04-25T04:47:03.169Z,1000.99
2018-04-25T04:48:03.184Z,1000.96
2018-04-25T04:49:03.194Z,1000.98
2018-04-25T04:50:03.217Z,1000.96
2018-04-25T04:51:03.237Z,1000.97
2018-04-25T04:52:03.259Z,1000.92
2018-04-25T04:53:03.280Z,1000.96
2018-04-25T04:54:03.307Z,1000.95
2018-04-25T04:55:03.310Z,1000.95
2018-04-25T04:56:03.334Z,1000.96
2018-04-25T04:57:03.354Z,1000.91
2018-04-25T04:58:03.381Z,1000.88
2018-04-25T04:59:03.419Z,1000.84
2018-04-25T05:00:03.417Z,1000.85
2018-04-25T05:01:03.438Z,1000.85
2018-04-25T05:02:03.448Z,1000.86
2018-04-25T05:03:03.469Z,1000.83
2018-04-25T05:04:03.494Z,1000.79
2018-04-25T05:05:03.512Z,1000.80
2018-04-25T05:06:03.534Z,1000.80
2018-04-25T05:07:03.555Z,1000.83
2018-04-25T05:08:03.564Z,1000.90
2018-04-25T05:09:03.598Z,1000.90
2018-04-25T05:10:03.647Z,1000.88
2018-04-25T05:11:03.631Z,1000.86
2018-04-25T05:12:03.652Z,1000.91
2018-04-25T05:13:03.673Z,1000.83
2018-04-25T05:14:03.691Z,1000.85
2018-04-25T05:15:03.713Z,1000.82
2018-04-25T05:16:03.722Z,1000.82
2018-04-25T05:17:03.755Z,1000.85
2018-04-25T05:18:03.766Z,1000.84
2018-04-25T05:19:03.788Z,1000.82
2018-04-25T05:20:03.809Z,1000.85
2018-04-25T05:21:03.830Z,1000.86
2018-04-25T05:22:03.857Z,1000.86
2018-04-25T05:23:03.861Z,1000.80
2018-04-25T05:24:03.885Z,1000.87
2018-04-25T05:25:03.902Z,1000.84
2018-04-25T05:26:03.924Z,1000.84
2018-04-25T05:27:03.947Z,1000.75
2018-04-25T05:28:03.966Z,1000.77
2018-04-25T05:29:03.987Z,1000.80
2018-04-25T05:30:04.013Z,1000.80
2018-04-25T05:31:04.045Z,1000.77
2018-04-25T05:32:04.061Z,1000.83
2018-04-25T05:33:04.062Z,1000.77
2018-04-25T05:34:04.083Z,1000.73
2018-04-25T05:35:04.104Z,1000.79
2018-04-25T05:36:04.125Z,1000.82
2018-04-25T05:37:04.147Z,1000.80
2018-04-25T05:38:04.169Z,1000.82
2018-04-25T05:39:04.189Z,1000.77
2018-04-25T05:40:04.212Z,1000.82
2018-04-25T05:41:04.231Z,1000.81
2018-04-25T05:42:04.241Z,1000.78
2018-04-25T05:43:04.261Z,1000.73
2018-04-25T05:44:04.283Z,1000.71
2018-04-25T05:45:04.304Z,1000.73
2018-04-25T05:46:04.377Z,1000.71
2018-04-25T05:47:04.348Z,1000.75
2018-04-25T05:48:04.368Z,1000.73
2018-04-25T05:49:04.391Z,1000.67
2018-04-25T05:50:04.400Z,1000.70
2018-04-25T05:51:04.420Z,1000.65
2018-04-25T05:52:04.441Z,1000.65
2018-04-25T05:53:04.464Z,1000.69
2018-04-25T05:54:04.485Z,1000.68
2018-04-25T05:55:04.507Z,1000.64
2018-04-25T05:56:04.528Z,1000.63
2018-04-25T05:57:04.550Z,1000.59
2018-04-25T05:58:04.557Z,1000.62
2018-04-25T05:59:04.579Z,1000.58
2018-04-25T06:00:04.600Z,1000.55
2018-04-25T06:01:04.621Z,1000.54
2018-04-25T06:02:04.645Z,1000.48
2018-04-25T06:03:04.663Z,1000.50
2018-04-25T06:04:04.687Z,1000.48
2018-04-25T06:05:04.707Z,1000.50
2018-04-25T06:06:04.728Z,1000.49
2018-04-25T06:07:04.771Z,1000.46
2018-04-25T06:08:04.759Z,1000.43
2018-04-25T06:09:04.781Z,1000.40
2018-04-25T06:10:04.805Z,1000.39
2018-04-25T06:11:04.824Z,1000.44
2018-04-25T06:12:04.847Z,1000.36
2018-04-25T06:13:04.866Z,1000.36
2018-04-25T06:14:04.889Z,1000.37
2018-04-25T06:15:04.911Z,1000.32
2018-04-25T06:16:04.919Z,1000.32
2018-04-25T06:17:04.940Z,1000.24
2018-04-25T06:18:04.960Z,1000.28
2018-04-25T06:19:04.982Z,1000.29
2018-04-25T06:20:05.004Z,1000.27
2018-04-25T06:21:05.038Z,1000.28
2018-04-25T06:22:05.047Z,1000.28
2018-04-25T06:23:05.068Z,1000.33
2018-04-25T06:24:05.090Z,1000.26
2018-04-25T06:25:05.100Z,1000.29
2018-04-25T06:26:05.124Z,1000.27
2018-04-25T06:27:05.142Z,1000.27
2018-04-25T06:28:05.170Z,1000.27
2018-04-25T06:29:05.185Z,1000.29
2018-04-25T06:30:05.206Z,1000.25
2018-04-25T06:31:05.228Z,1000.27
2018-04-25T06:32:05.249Z,1000.26
2018-04-25T06:33:05.271Z,1000.25
2018-04-25T06:34:05.292Z,1000.30
2018-04-25T06:35:05.300Z,1000.25
2018-04-25T06:36:05.322Z,1000.19
2018-04-25T06:37:05.343Z,1000.19
2018-04-25T06:38:05.364Z,1000.20
2018-04-25T06:39:05.386Z,1000.22
2018-04-25T06:40:05.407Z,1000.21
2018-04-25T06:41:05.428Z,1000.21
2018-04-25T06:42:05.450Z,1000.25
2018-04-25T06:43:05.461Z,1000.26
2018-04-25T06:44:05.482Z,1000.25
2018-04-25T06:45:05.516Z,1000.22
2018-04-25T06:46:05.524Z,1000.21
2018-04-25T06:47:05.545Z,1000.21
2018-04-25T06:48:05.566Z,1000.25
2018-04-25T06:49:05.592Z,1000.21
2018-04-25T06:50:05.609Z,1000.19
2018-04-25T06:51:05.630Z,1000.17
2018-04-25T06:52:05.655Z,1000.15
2018-04-25T06:53:05.673Z,1000.12
2018-04-25T06:54:05.682Z,1000.14
2018-04-25T06:55:05.703Z,1000.14
2018-04-25T06:56:05.723Z,1000.17
2018-04-25T06:57:05.745Z,1000.17
2018-04-25T06:58:05.767Z,1000.22
2018-04-25T06:59:05.788Z,1000.21
2018-04-25T07:00:05.810Z,1000.21
2018-04-25T07:01:05.830Z,1000.24
2018-04-25T07:02:05.865Z,1000.21
2018-04-25T07:03:05.877Z,1000.18
2018-04-25T07:04:05.949Z,1000.22
2018-04-25T07:05:05.916Z,1000.21
2018-04-25T07:06:05.925Z,1000.13
2018-04-25T07:07:05.946Z,1000.14
2018-04-25T07:08:05.970Z,1000.20
2018-04-25T07:09:05.990Z,1000.21
2018-04-25T07:10:06.011Z,1000.22
2018-04-25T07:11:06.033Z,1000.17
2018-04-25T07:12:06.054Z,1000.13
2018-04-25T07:13:06.075Z,1000.10
2018-04-25T07:14:06.140Z,1000.15
2018-04-25T07:15:06.122Z,1000.13
2018-04-25T07:16:06.139Z,1000.12
2018-04-25T07:17:06.167Z,1000.08
2018-04-25T07:18:06.170Z,1000.12
2018-04-25T07:19:06.191Z,1000.09
2018-04-25T07:20:06.212Z,1000.10
2018-04-25T07:21:06.233Z,1000.13
2018-04-25T07:22:06.256Z,1000.10
2018-04-25T07:23:06.278Z,1000.11
2018-04-25T07:24:06.298Z,1000.15
2018-04-25T07:25:06.320Z,1000.19
2018-04-25T07:26:06.349Z,1000.17
2018-04-25T07:27:06.362Z,1000.15
2018-04-25T07:28:06.388Z,1000.17
2018-04-25T07:29:06.401Z,1000.16
2018-04-25T07:30:06.428Z,1000.20
2018-04-25T07:31:06.441Z,1000.15
2018-04-25T07:32:06.472Z,1000.14
2018-04-25T07:33:06.480Z,1000.13
2018-04-25T07:34:06.507Z,1000.13
2018-04-25T07:35:06.523Z,1000.10
2018-04-25T07:36:06.546Z,1000.07
2018-04-25T07:37:06.560Z,1000.05
2018-04-25T07:38:06.586Z,1000.00
2018-04-25T07:39:06.616Z,999.99
2018-04-25T07:40:06.625Z,1000.01
2018-04-25T07:41:06.651Z,1000.04
2018-04-25T07:42:06.671Z,1000.07
2018-04-25T07:43:06.691Z,1000.01
2018-04-25T07:44:06.704Z,1000.03
2018-04-25T07:45:06.743Z,1000.00
2018-04-25T07:46:06.761Z,1000.00
2018-04-25T07:47:06.770Z,999.98
2018-04-25T07:48:06.797Z,999.95
2018-04-25T07:49:06.810Z,999.97
2018-04-25T07:50:06.836Z,999.96
2018-04-25T07:51:06.850Z,999.98
2018-04-25T07:52:06.902Z,999.99
2018-04-25T07:53:06.888Z,1000.01
2018-04-25T07:54:06.914Z,1000.01
2018-04-25T07:55:06.929Z,999.97
2018-04-25T07:56:06.967Z,999.94
2018-04-25T07:57:06.980Z,999.96
2018-04-25T07:58:06.993Z,1000.03
2018-04-25T07:59:07.023Z,1000.00
2018-04-25T08:00:07.033Z,999.91
2018-04-25T08:01:07.059Z,999.95
2018-04-25T08:02:07.073Z,1000.01
2018-04-25T08:03:07.098Z,1000.06
2018-04-25T08:04:07.125Z,1000.04
2018-04-25T08:05:07.139Z,1000.03
2018-04-25T08:06:07.164Z,1000.09
2018-04-25T08:07:07.178Z,1000.10
2018-04-25T08:08:07.203Z,1000.08
2018-04-25T08:09:07.230Z,1000.10
2018-04-25T08:10:07.247Z,1000.10
2018-04-25T08:11:07.269Z,1000.08
2018-04-25T08:12:07.282Z,1000.09
2018-04-25T08:13:07.322Z,1000.08
2018-04-25T08:14:07.335Z,1000.05
2018-04-25T08:15:07.348Z,1000.04
2018-04-25T08:16:07.374Z,999.99
2018-04-25T08:17:07.402Z,1000.01
2018-04-25T08:18:07.414Z,1000.04
2018-04-25T08:19:07.439Z,999.98
2018-04-25T08:20:07.467Z,999.92
2018-04-25T08:21:07.497Z,999.94
2018-04-25T08:22:07.504Z,999.89
2018-04-25T08:23:07.533Z,999.90
2018-04-25T08:24:07.545Z,999.92
2018-04-25T08:25:07.570Z,999.89
2018-04-25T08:26:07.596Z,999.89
2018-04-25T08:27:07.610Z,999.83
2018-04-25T08:28:07.636Z,999.85
2018-04-25T08:29:07.662Z,999.83
2018-04-25T08:30:07.689Z,999.84
2018-04-25T08:31:07.702Z,999.85
2018-04-25T08:32:07.738Z,999.87
2018-04-25T08:33:07.768Z,999.88
2018-04-25T08:34:07.782Z,999.80
2018-04-25T08:35:07.794Z,999.82
2018-04-25T08:36:07.819Z,999.86
2018-04-25T08:37:07.846Z,999.91
2018-04-25T08:38:07.859Z,999.95
2018-04-25T08:39:07.965Z,999.98
2018-04-25T08:40:07.916Z,999.94
2018-04-25T08:41:07.938Z,1000.02
2018-04-25T08:42:07.952Z,1000.00
2018-04-25T08:43:07.981Z,999.99
2018-04-25T08:44:08.009Z,999.93
2018-04-25T08:45:08.022Z,1000.03
2018-04-25T08:46:08.042Z,999.95
2018-04-25T08:47:08.069Z,1000.00
2018-04-25T08:48:08.083Z,1000.00
2018-04-25T08:49:08.113Z,1000.13
2018-04-25T08:50:08.134Z,1000.03
2018-04-25T08:51:08.160Z,1000.00
2018-04-25T08:52:08.186Z,1000.00
2018-04-25T08:53:08.213Z,999.98
2018-04-25T08:54:08.225Z,1000.06
2018-04-25T08:55:08.252Z,1000.07
2018-04-25T08:56:08.266Z,1000.00
2018-04-25T08:57:08.291Z,1000.03
2018-04-25T08:58:08.329Z,999.91
2018-04-25T08:59:08.391Z,999.99
2018-04-25T09:00:08.368Z,999.94
2018-04-25T09:01:08.382Z,999.90
2018-04-25T09:02:08.409Z,999.84
2018-04-25T09:03:08.434Z,999.83
2018-04-25T09:04:08.460Z,999.89
2018-04-25T09:05:08.487Z,999.88
2018-04-25T09:06:08.499Z,999.92
2018-04-25T09:07:08.526Z,999.93
2018-04-25T09:08:08.564Z,999.87
2018-04-25T09:09:08.578Z,999.94
2018-04-25T09:10:08.603Z,999.79
2018-04-25T09:11:08.629Z,999.72
2018-04-25T09:12:08.656Z,999.70
2018-04-25T09:13:08.694Z,999.66
2018-04-25T09:14:08.700Z,999.58
2018-04-25T09:15:08.727Z,999.61
2018-04-25T09:16:08.748Z,999.53
2018-04-25T09:17:08.773Z,999.49
2018-04-25T09:18:08.801Z,999.50
2018-04-25T09:19:08.829Z,999.57
2018-04-25T09:20:08.852Z,999.64
2018-04-25T09:21:08.883Z,999.68
2018-04-25T09:22:08.903Z,999.66
2018-04-25T09:23:08.931Z,999.60
2018-04-25T09:24:08.955Z,999.55
2018-04-25T09:25:08.970Z,999.62
2018-04-25T09:26:08.995Z,999.66
2018-04-25T09:27:09.033Z,999.66
2018-04-25T09:28:09.047Z,999.66
2018-04-25T09:29:09.086Z,999.58
2018-04-25T09:30:09.098Z,999.68
2018-04-25T09:31:09.125Z,999.63
2018-04-25T09:32:09.150Z,999.67
2018-04-25T09:33:09.176Z,999.61
2018-04-25T09:34:09.207Z,999.62
2018-04-25T09:35:09.248Z,999.64
2018-04-25T09:36:09.260Z,999.63
2018-04-25T09:37:09.280Z,999.58
2018-04-25T09:38:09.319Z,999.67
2018-04-25T09:39:09.334Z,999.52
2018-04-25T09:40:09.360Z,999.37
2018-04-25T09:41:09.390Z,999.48
2018-04-25T09:42:09.411Z,999.53
2018-04-25T09:43:09.436Z,999.51
2018-04-25T09:44:09.463Z,999.39
2018-04-25T09:45:09.489Z,999.40
2018-04-25T09:46:09.527Z,999.39
2018-04-25T09:47:09.541Z,999.54
2018-04-25T09:48:09.567Z,999.39
2018-04-25T09:49:09.593Z,999.32
2018-04-25T09:50:09.633Z,999.40
2018-04-25T09:51:09.649Z,999.34
2018-04-25T09:52:09.672Z,999.21
2018-04-25T09:53:09.697Z,999.24
2018-04-25T09:54:09.723Z,999.27
2018-04-25T09:55:09.762Z,999.22
2018-04-25T09:56:09.775Z,999.19
2018-04-25T09:57:09.813Z,999.22
2018-04-25T09:58:09.827Z,999.25
2018-04-25T09:59:09.854Z,999.33
2018-04-25T10:00:09.879Z,999.42
2018-04-25T10:01:09.906Z,999.41
2018-04-25T10:02:09.948Z,999.35
2018-04-25T10:03:09.960Z,999.28
2018-04-25T10:04:09.984Z,999.35
2018-04-25T10:05:10.011Z,999.47
2018-04-25T10:06:10.040Z,999.30
2018-04-25T10:07:10.062Z,999.40
2018-04-25T10:08:10.099Z,999.31
2018-04-25T10:09:10.125Z,999.33
2018-04-25T10:10:10.153Z,999.28
2018-04-25T10:11:10.167Z,999.30
2018-04-25T10:12:10.204Z,999.24
2018-04-25T10:13:10.230Z,999.33
2018-04-25T10:14:10.256Z,999.30
2018-04-25T10:15:10.352Z,999.27
2018-04-25T10:16:10.308Z,999.09
2018-04-25T10:17:10.430Z,999.19
2018-04-25T10:18:10.360Z,999.25
2018-04-25T10:19:10.399Z,999.24
2018-04-25T10:20:10.413Z,999.27
2018-04-25T10:21:10.467Z,999.36
2018-04-25T10:22:10.478Z,999.26
2018-04-25T10:23:10.503Z,999.06
2018-04-25T10:24:10.551Z,999.08
2018-04-25T10:25:10.555Z,999.11
2018-04-25T10:26:10.581Z,999.12
2018-04-25T10:27:10.608Z,999.27
2018-04-25T10:28:10.645Z,999.38
2018-04-25T10:29:10.671Z,999.24
2018-04-25T10:30:10.698Z,999.25
2018-04-25T10:31:10.726Z,999.12
2018-04-25T10:32:10.750Z,999.07
2018-04-25T10:33:10.779Z,999.17
2018-04-25T10:34:10.802Z,999.20
2018-04-25T10:35:10.829Z,999.19
2018-04-25T10:36:10.854Z,999.11
2018-04-25T10:37:10.880Z,999.24
2018-04-25T10:38:10.906Z,999.32
2018-04-25T10:39:10.945Z,999.17
2018-04-25T10:40:10.959Z,999.20
2018-04-25T10:41:10.984Z,999.12
2018-04-25T10:42:11.011Z,999.19
2018-04-25T10:43:11.041Z,999.15
2018-04-25T10:44:11.066Z,998.96
2018-04-25T10:45:11.100Z,998.99
2018-04-25T10:46:11.126Z,998.96
2018-04-25T10:47:11.152Z,998.89
2018-04-25T10:48:11.179Z,998.85
2018-04-25T10:49:11.204Z,998.96
2018-04-25T10:50:11.233Z,998.93
2018-04-25T10:51:11.256Z,998.82
2018-04-25T10:52:11.283Z,998.91
2018-04-25T10:53:11.321Z,998.81
2018-04-25T10:54:11.334Z,998.91
2018-04-25T10:55:11.361Z,998.92
2018-04-25T10:56:11.387Z,998.97
2018-04-25T10:57:11.412Z,999.02
2018-04-25T10:58:11.428Z,999.05
2018-04-25T10:59:11.452Z,999.12
2018-04-25T11:00:11.477Z,999.07
2018-04-25T11:01:11.505Z,999.17
2018-04-25T11:02:11.543Z,999.22
2018-04-25T11:03:11.556Z,999.39
2018-04-25T11:04:11.581Z,999.52
2018-04-25T11:05:11.609Z,999.80
2018-04-25T11:06:11.634Z,999.77
2018-04-25T11:07:11.659Z,999.83
2018-04-25T11:08:11.710Z,999.80
2018-04-25T11:09:11.700Z,999.78
2018-04-25T11:10:11.725Z,999.94
2018-04-25T11:11:11.752Z,1000.00
2018-04-25T11:12:11.777Z,999.88
2018-04-25T11:13:11.792Z,999.98
2018-04-25T11:14:11.816Z,1000.11
2018-04-25T11:15:11.843Z,1000.23
2018-04-25T11:16:11.870Z,1000.14
2018-04-25T11:17:11.895Z,1000.18
2018-04-25T11:18:11.910Z,1000.31
2018-04-25T11:19:11.936Z,1000.25
2018-04-25T11:20:11.960Z,1000.29
2018-04-25T11:21:11.974Z,1000.35
2018-04-25T11:22:12.000Z,1000.23
2018-04-25T11:23:12.027Z,1000.12
2018-04-25T11:24:12.039Z,1000.15
2018-04-25T11:25:12.078Z,1000.15
2018-04-25T11:26:12.091Z,1000.11
2018-04-25T11:27:12.105Z,1000.01
2018-04-25T11:28:12.131Z,1000.10
2018-04-25T11:29:12.145Z,1000.15
2018-04-25T11:30:12.170Z,1000.15
2018-04-25T11:31:12.195Z,1000.03
2018-04-25T11:32:12.209Z,1000.04
2018-04-25T11:33:12.234Z,999.97
2018-04-25T11:34:12.261Z,1000.00
2018-04-25T11:35:12.350Z,1000.04
2018-04-25T11:36:12.302Z,1000.07
2018-04-25T11:37:12.319Z,1000.04
2018-04-25T11:38:12.339Z,1000.22
2018-04-25T11:39:12.371Z,1000.11
2018-04-25T11:40:12.380Z,1000.01
2018-04-25T11:41:12.422Z,999.95
2018-04-25T11:42:12.435Z,999.92
2018-04-25T11:43:12.445Z,999.98
2018-04-25T11:44:12.472Z,1000.06
2018-04-25T11:45:12.485Z,1000.27
2018-04-25T11:46:12.512Z,1000.16
2018-04-25T11:47:12.549Z,1000.17
2018-04-25T11:48:12.554Z,1000.26
2018-04-25T11:49:12.576Z,1000.38
2018-04-25T11:50:12.602Z,1000.24
2018-04-25T11:51:12.628Z,1000.15
2018-04-25T11:52:12.642Z,1000.30
2018-04-25T11:53:12.668Z,1000.07
2018-04-25T11:54:12.694Z,1000.11
2018-04-25T11:55:12.708Z,999.98
2018-04-25T11:56:12.733Z,999.94
2018-04-25T11:57:12.760Z,1000.04
2018-04-25T11:58:12.786Z,1000.05
2018-04-25T11:59:12.811Z,999.98
2018-04-25T12:00:12.826Z,999.96
2018-04-25T12:01:12.864Z,1000.02
2018-04-25T12:02:12.878Z,999.98
2018-04-25T12:03:12.903Z,999.88
2018-04-25T12:04:12.929Z,999.89
2018-04-25T12:05:12.968Z,1000.01
2018-04-25T12:06:12.981Z,999.97
2018-04-25T12:07:13.008Z,999.91
2018-04-25T12:08:13.033Z,999.88
2018-04-25T12:09:13.059Z,999.98
2018-04-25T12:10:13.085Z,999.97
2018-04-25T12:11:13.115Z,999.86
2018-04-25T12:12:13.149Z,999.80